Time;durP1;ratioP1;P1;durP2;ratioP2;P2;SDS_P1;SDS_P2;PMS_P1;PMS_P2;Temp;Humidity;BMP_temperature;BMP_pressure;BME280_temperature;BME280_humidity;BME280_pressure;Samples;Min_cycle;Max_cycle;Signal;HPM_P1;HPM_P2
2021/11/03 00:01:16;;;;;;;5.28;3.10;;;21.30;48.90;;;;;;3135447;28;20045;-50
2021/11/03 00:02:47;;;;;;;4.88;3.00;;;21.40;48.80;;;;;;3146725;28;20044;-51
2021/11/03 00:04:19;;;;;;;5.07;2.75;;;21.40;48.70;;;;;;3140398;28;20056;-49
2021/11/03 00:05:51;;;;;;;3.67;2.90;;;21.40;48.70;;;;;;3146196;28;20366;-51
2021/11/03 00:07:22;;;;;;;3.72;3.08;;;21.40;48.70;;;;;;3146961;28;20052;-49
2021/11/03 00:08:56;;;;;;;3.78;2.50;;;21.40;48.70;;;;;;3146410;28;20040;-49
2021/11/03 00:10:28;;;;;;;4.78;3.10;;;21.40;48.80;;;;;;3145585;28;20409;-52
2021/11/03 00:12:00;;;;;;;4.75;3.22;;;21.40;48.70;;;;;;3146177;28;20508;-52
2021/11/03 00:13:31;;;;;;;4.13;3.40;;;21.50;48.70;;;;;;3136649;28;20065;-54
2021/11/03 00:15:03;;;;;;;5.07;3.25;;;21.50;48.60;;;;;;3140823;28;20040;-51
2021/11/03 00:16:35;;;;;;;4.38;3.53;;;21.50;48.70;;;;;;3138246;28;20041;-49
2021/11/03 00:18:06;;;;;;;4.05;3.17;;;21.50;48.50;;;;;;3134399;28;20504;-49
2021/11/03 00:19:38;;;;;;;4.70;3.22;;;21.50;48.50;;;;;;3132102;28;20045;-52
2021/11/03 00:21:10;;;;;;;4.03;3.17;;;21.50;48.50;;;;;;3130909;28;20041;-55
2021/11/03 00:22:42;;;;;;;4.43;3.13;;;21.50;48.50;;;;;;3137966;28;20048;-49
2021/11/03 00:24:15;;;;;;;7.45;3.10;;;21.50;48.60;;;;;;3146381;28;20411;-49
2021/11/03 00:25:46;;;;;;;4.20;3.15;;;21.50;48.50;;;;;;3145087;28;20408;-52
2021/11/03 00:27:17;;;;;;;6.43;3.50;;;21.50;48.40;;;;;;3125333;28;20367;-54
2021/11/03 00:28:49;;;;;;;4.35;3.33;;;21.50;48.40;;;;;;3122081;28;20049;-49
2021/11/03 00:30:21;;;;;;;4.75;3.20;;;21.50;48.30;;;;;;3119492;28;20091;-51
2021/11/03 00:31:53;;;;;;;5.05;3.40;;;21.60;48.30;;;;;;3136147;28;20052;-49
2021/11/03 00:33:26;;;;;;;3.50;2.90;;;21.60;48.30;;;;;;3134250;28;20049;-54
2021/11/03 00:34:57;;;;;;;;;;;21.60;48.40;;;;;;3134192;28;20048;-51
2021/11/03 00:36:29;;;;;;;4.30;3.30;;;21.50;48.30;;;;;;3135580;28;20284;-52
2021/11/03 00:38:00;;;;;;;3.83;2.90;;;21.60;48.30;;;;;;3145343;28;20056;-51
2021/11/03 00:39:34;;;;;;;5.22;3.38;;;21.60;48.30;;;;;;3141199;28;20044;-48
2021/11/03 00:41:05;;;;;;;4.35;3.10;;;21.60;48.20;;;;;;3145398;28;20045;-51
2021/11/03 00:42:37;;;;;;;5.13;3.53;;;21.60;48.20;;;;;;3140790;28;20529;-54
2021/11/03 00:44:09;;;;;;;4.95;2.95;;;21.60;48.20;;;;;;3140885;28;20071;-48
2021/11/03 00:45:41;;;;;;;4.55;3.25;;;21.60;48.20;;;;;;3142075;28;20037;-49
2021/11/03 00:47:12;;;;;;;4.13;3.25;;;21.60;48.20;;;;;;3121291;28;20056;-49
2021/11/03 00:48:44;;;;;;;4.05;3.33;;;21.60;48.00;;;;;;3122488;28;20049;-56
2021/11/03 00:50:15;;;;;;;5.82;3.35;;;21.60;48.10;;;;;;3122515;28;20087;-55
2021/11/03 00:51:47;;;;;;;3.55;3.08;;;21.60;48.00;;;;;;3121204;28;20048;-49
2021/11/03 00:53:19;;;;;;;4.15;3.30;;;21.60;48.00;;;;;;3121169;28;20072;-49
2021/11/03 00:54:52;;;;;;;4.72;3.45;;;21.60;48.10;;;;;;3133149;28;20049;-49
2021/11/03 00:56:23;;;;;;;4.85;3.13;;;21.60;48.20;;;;;;3125341;28;20045;-48
2021/11/03 00:57:55;;;;;;;4.75;3.47;;;21.60;48.10;;;;;;3121362;28;20056;-54
2021/11/03 00:59:27;;;;;;;5.05;3.30;;;21.60;48.10;;;;;;3121104;28;20053;-49
2021/11/03 01:00:58;;;;;;;4.13;3.35;;;21.60;48.20;;;;;;3124520;28;20091;-52
2021/11/03 01:02:30;;;;;;;3.47;3.05;;;21.60;48.10;;;;;;3126481;28;20049;-52
2021/11/03 01:04:02;;;;;;;3.92;3.25;;;21.60;48.10;;;;;;3124648;28;20253;-51
2021/11/03 01:05:37;;;;;;;3.95;3.55;;;21.60;48.10;;;;;;3129785;28;20048;-50
2021/11/03 01:07:09;;;;;;;4.72;2.95;;;21.60;48.10;;;;;;3122605;28;20387;-49
2021/11/03 01:08:41;;;;;;;4.93;3.80;;;21.60;48.20;;;;;;3130950;28;20045;-51
2021/11/03 01:10:13;;;;;;;3.72;3.00;;;21.60;48.10;;;;;;3128937;28;20060;-54
2021/11/03 01:11:45;;;;;;;4.15;2.97;;;21.60;48.00;;;;;;3135650;28;20044;-53
2021/11/03 01:13:18;;;;;;;3.45;2.85;;;21.60;48.00;;;;;;3146228;28;20052;-56
2021/11/03 01:14:49;;;;;;;3.95;3.22;;;21.60;48.60;;;;;;3145651;28;20084;-49
2021/11/03 01:16:21;;;;;;;4.35;3.22;;;21.60;48.10;;;;;;3136807;28;20417;-50
2021/11/03 01:17:54;;;;;;;4.38;3.38;;;21.60;48.10;;;;;;3133891;28;20102;-52
2021/11/03 01:19:26;;;;;;;4.53;2.97;;;21.60;48.80;;;;;;3133767;28;20485;-53
2021/11/03 01:20:58;;;;;;;3.95;3.40;;;21.50;48.20;;;;;;3132239;28;20099;-50
2021/11/03 01:22:30;;;;;;;3.92;3.17;;;21.60;48.20;;;;;;3133557;28;20098;-53
2021/11/03 01:24:01;;;;;;;5.03;3.53;;;21.60;48.10;;;;;;3133688;28;20157;-53
2021/11/03 01:25:34;;;;;;;4.13;3.45;;;21.60;48.20;;;;;;3142469;28;20053;-49
2021/11/03 01:27:06;;;;;;;5.32;3.10;;;21.60;48.20;;;;;;3140579;28;20049;-49
2021/11/03 01:28:38;;;;;;;4.38;3.20;;;21.60;48.20;;;;;;3142592;28;20540;-54
2021/11/03 01:30:12;;;;;;;5.30;3.30;;;21.50;48.20;;;;;;3139266;28;20049;-51
2021/11/03 01:31:43;;;;;;;5.80;3.42;;;21.50;48.20;;;;;;3128525;28;20056;-52
2021/11/03 01:33:16;;;;;;;5.03;3.35;;;21.60;48.20;;;;;;3122156;28;20418;-50
2021/11/03 01:34:48;;;;;;;4.43;3.30;;;21.60;48.10;;;;;;3126008;28;20633;-52
2021/11/03 01:36:20;;;;;;;3.40;2.95;;;21.60;48.10;;;;;;3120789;28;20495;-51
2021/11/03 01:37:51;;;;;;;3.90;3.08;;;21.60;47.90;;;;;;3126130;28;20047;-53
2021/11/03 01:39:23;;;;;;;4.03;3.30;;;21.60;47.90;;;;;;3128952;28;20049;-50
2021/11/03 01:40:56;;;;;;;5.30;3.63;;;21.60;48.00;;;;;;3121475;28;20053;-51
2021/11/03 01:42:27;;;;;;;4.63;3.33;;;21.60;48.10;;;;;;3133825;28;20049;-49
2021/11/03 01:44:01;;;;;;;5.20;3.63;;;21.50;48.10;;;;;;3142752;28;20044;-52
2021/11/03 01:45:33;;;;;;;3.83;3.42;;;21.50;48.20;;;;;;3140974;28;20048;-53
2021/11/03 01:47:47;;;;;;;4.05;3.38;;;21.50;48.20;;;;;;3129748;28;20046;-53
2021/11/03 01:49:19;;;;;;;4.38;3.30;;;21.50;48.20;;;;;;3127661;28;20051;-48
2021/11/03 01:50:55;;;;;;;4.50;3.35;;;21.60;48.00;;;;;;3130628;28;20049;-53
2021/11/03 01:52:26;;;;;;;3.38;2.88;;;21.60;48.10;;;;;;3124594;28;20045;-48
2021/11/03 01:53:58;;;;;;;4.55;3.30;;;21.60;48.10;;;;;;3133328;28;20052;-54
2021/11/03 01:55:30;;;;;;;7.03;3.17;;;21.50;48.10;;;;;;3132674;28;20455;-55
2021/11/03 01:57:07;;;;;;;4.72;3.30;;;21.60;48.10;;;;;;3139920;28;20044;-51
2021/11/03 01:58:41;;;;;;;3.42;3.03;;;21.50;48.10;;;;;;3135865;28;20076;-50
2021/11/03 02:00:15;;;;;;;3.63;3.15;;;21.50;48.10;;;;;;3131351;28;20056;-53
2021/11/03 02:01:47;;;;;;;3.92;3.30;;;21.60;48.10;;;;;;3128435;28;20076;-52
2021/11/03 02:03:20;;;;;;;4.15;3.20;;;21.50;48.10;;;;;;3121628;28;20049;-53
2021/11/03 02:04:52;;;;;;;3.63;3.22;;;21.50;48.10;;;;;;3123660;28;20049;-55
2021/11/03 02:06:25;;;;;;;4.50;3.03;;;21.50;48.10;;;;;;3131727;28;20052;-50
2021/11/03 02:07:56;;;;;;;3.78;3.10;;;21.50;48.10;;;;;;3129061;28;20045;-50
2021/11/03 02:09:28;;;;;;;6.25;3.40;;;21.60;48.00;;;;;;3131741;28;20057;-52
2021/11/03 02:11:00;;;;;;;3.72;3.05;;;21.60;48.00;;;;;;3131980;28;20060;-51
2021/11/03 02:12:33;;;;;;;3.67;3.08;;;21.60;48.00;;;;;;3123061;28;20053;-50
2021/11/03 02:14:05;;;;;;;3.35;3.05;;;21.60;48.00;;;;;;3127516;28;20049;-52
2021/11/03 02:15:37;;;;;;;5.93;3.30;;;21.60;47.90;;;;;;3124807;28;20053;-52
2021/11/03 02:17:08;;;;;;;3.53;2.95;;;21.50;48.00;;;;;;3140082;28;20044;-54
2021/11/03 02:18:40;;;;;;;6.30;3.20;;;21.50;48.00;;;;;;3142172;28;20103;-49
2021/11/03 02:20:13;;;;;;;3.38;2.85;;;21.50;48.10;;;;;;3132247;28;20045;-49
2021/11/03 02:21:48;;;;;;;3.78;3.08;;;21.50;48.00;;;;;;3135020;28;20047;-51
2021/11/03 02:23:24;;;;;;;4.43;3.22;;;21.50;47.90;;;;;;3132729;28;20049;-52
2021/11/03 02:25:02;;;;;;;4.00;3.00;;;21.60;47.90;;;;;;3139135;28;20055;-53
2021/11/03 02:26:36;;;;;;;3.58;2.78;;;21.60;47.90;;;;;;3137327;28;20494;-53
2021/11/03 02:28:08;;;;;;;4.95;3.25;;;21.60;47.90;;;;;;3123770;28;20057;-51
2021/11/03 02:29:40;;;;;;;4.70;3.10;;;21.50;47.80;;;;;;3121997;28;20049;-54
2021/11/03 02:31:31;;;;;;;3.63;3.30;;;21.60;47.90;;;;;;3129879;28;20106;-52
2021/11/03 02:33:07;;;;;;;3.58;3.08;;;21.50;47.90;;;;;;3127150;28;20060;-51
2021/11/03 02:34:39;;;;;;;3.30;3.00;;;21.50;48.00;;;;;;3129253;28;20405;-50
2021/11/03 02:36:11;;;;;;;3.33;2.80;;;21.50;48.10;;;;;;3128299;28;20099;-53
2021/11/03 02:37:44;;;;;;;3.97;2.92;;;21.50;48.10;;;;;;3120712;28;20410;-50
2021/11/03 02:39:16;;;;;;;3.60;3.00;;;21.50;48.10;;;;;;3129261;28;20113;-52
2021/11/03 02:40:50;;;;;;;3.67;3.10;;;21.50;48.10;;;;;;3131362;28;20041;-51
2021/11/03 02:42:22;;;;;;;3.38;2.95;;;21.50;48.00;;;;;;3132751;28;20669;-49
2021/11/03 02:43:56;;;;;;;4.00;3.00;;;21.50;47.90;;;;;;3128026;28;20486;-50
2021/11/03 02:45:29;;;;;;;4.32;3.17;;;21.50;47.90;;;;;;3130798;28;20049;-50
2021/11/03 02:47:01;;;;;;;;;;;21.50;48.10;;;;;;3133018;28;20107;-50
2021/11/03 02:48:34;;;;;;;4.07;3.28;;;21.50;48.10;;;;;;3132657;28;19920;-49
2021/11/03 02:50:06;;;;;;;4.35;3.10;;;21.40;48.10;;;;;;3129138;28;20063;-49
2021/11/03 02:51:39;;;;;;;4.55;2.92;;;21.50;48.20;;;;;;3133581;28;20036;-57
2021/11/03 02:53:10;;;;;;;3.25;2.88;;;21.40;48.10;;;;;;3137907;28;20064;-49
2021/11/03 02:54:42;;;;;;;6.47;3.08;;;21.50;48.10;;;;;;3132636;28;20550;-52
2021/11/03 02:56:16;;;;;;;3.58;3.22;;;21.50;48.00;;;;;;3132415;28;20056;-50
2021/11/03 02:57:47;;;;;;;4.70;3.03;;;21.50;48.10;;;;;;3142942;28;20059;-52
2021/11/03 02:59:19;;;;;;;3.10;2.72;;;21.50;48.10;;;;;;3144958;28;20545;-54
2021/11/03 03:00:52;;;;;;;4.70;3.25;;;21.50;48.00;;;;;;3143181;28;20045;-52
2021/11/03 03:02:23;;;;;;;4.20;3.22;;;21.50;48.10;;;;;;3140875;28;20057;-53
2021/11/03 03:03:55;;;;;;;4.15;2.90;;;21.50;48.20;;;;;;3132590;28;20067;-48
2021/11/03 03:05:27;;;;;;;3.90;3.47;;;21.50;48.20;;;;;;3132157;28;20065;-51
2021/11/03 03:06:59;;;;;;;3.28;2.78;;;21.50;48.10;;;;;;3132037;28;20052;-51
2021/11/03 03:08:30;;;;;;;3.83;2.80;;;21.50;48.10;;;;;;3132480;28;20061;-52
2021/11/03 03:10:02;;;;;;;4.32;2.80;;;21.40;48.10;;;;;;3143727;28;20048;-55
2021/11/03 03:11:37;;;;;;;5.13;3.13;;;21.50;48.10;;;;;;3144348;28;20052;-54
2021/11/03 03:13:09;;;;;;;3.70;2.92;;;21.50;48.10;;;;;;3144965;28;20084;-49
2021/11/03 03:14:41;;;;;;;3.20;2.85;;;21.50;48.00;;;;;;3141294;28;20045;-53
2021/11/03 03:16:13;;;;;;;3.58;2.90;;;21.50;48.00;;;;;;3131901;28;20391;-48
2021/11/03 03:17:45;;;;;;;4.45;2.90;;;21.50;47.90;;;;;;3132498;28;20518;-51
2021/11/03 03:19:17;;;;;;;3.03;2.70;;;21.50;48.00;;;;;;3132329;28;20064;-53
2021/11/03 03:20:47;;;;;;;3.13;2.55;;;21.40;48.10;;;;;;3130731;28;20045;-51
2021/11/03 03:22:19;;;;;;;3.28;2.80;;;21.50;48.10;;;;;;3135491;28;20485;-53
2021/11/03 03:23:51;;;;;;;3.92;2.92;;;21.50;48.00;;;;;;3145063;28;20048;-51
2021/11/03 03:25:23;;;;;;;3.30;2.83;;;21.50;48.10;;;;;;3147134;28;20418;-54
2021/11/03 03:26:57;;;;;;;4.18;2.92;;;21.50;48.10;;;;;;3126434;28;20053;-49
2021/11/03 03:28:28;;;;;;;5.30;2.53;;;21.40;48.20;;;;;;3122566;28;20072;-51
2021/11/03 03:30:00;;;;;;;3.20;2.70;;;21.40;48.20;;;;;;3121901;28;20060;-50
2021/11/03 03:31:32;;;;;;;3.63;3.00;;;21.40;48.20;;;;;;3125706;28;20056;-51
2021/11/03 03:33:04;;;;;;;4.25;2.90;;;21.40;48.10;;;;;;3129924;28;20049;-52
2021/11/03 03:34:36;;;;;;;3.55;2.60;;;21.40;48.20;;;;;;3123789;28;20070;-52
2021/11/03 03:36:08;;;;;;;2.78;2.58;;;21.50;48.20;;;;;;3125143;28;20563;-53
2021/11/03 03:37:39;;;;;;;3.80;2.80;;;21.40;48.20;;;;;;3134967;28;20413;-55
2021/11/03 03:39:12;;;;;;;3.10;2.80;;;21.40;48.20;;;;;;3126502;28;20715;-50
2021/11/03 03:40:43;;;;;;;3.88;2.80;;;21.40;48.20;;;;;;3121173;28;20119;-50
2021/11/03 03:42:18;;;;;;;2.88;2.50;;;21.40;48.20;;;;;;3134748;28;20048;-51
2021/11/03 03:43:50;;;;;;;3.03;2.58;;;21.40;48.30;;;;;;3124836;28;20061;-49
2021/11/03 03:45:22;;;;;;;4.07;2.90;;;21.40;48.30;;;;;;3121558;28;20510;-53
2021/11/03 03:46:54;;;;;;;5.03;2.70;;;21.40;48.30;;;;;;3131366;28;20056;-51
2021/11/03 03:48:25;;;;;;;2.65;2.45;;;21.40;48.20;;;;;;3124626;28;20057;-50
2021/11/03 03:49:57;;;;;;;3.20;2.67;;;21.40;48.20;;;;;;3121383;28;20425;-49
2021/11/03 03:51:29;;;;;;;4.22;2.92;;;21.40;48.10;;;;;;3121951;28;20107;-54
2021/11/03 03:53:00;;;;;;;3.05;2.40;;;21.40;48.10;;;;;;3129006;28;20049;-51
2021/11/03 03:54:32;;;;;;;3.40;2.72;;;21.40;48.20;;;;;;3124667;28;20061;-55
2021/11/03 03:56:04;;;;;;;3.47;2.88;;;21.40;48.30;;;;;;3126847;28;20060;-51
2021/11/03 03:57:37;;;;;;;3.90;2.90;;;21.40;48.30;;;;;;3132395;28;20063;-49
2021/11/03 03:59:09;;;;;;;2.90;2.60;;;21.40;48.30;;;;;;3121980;28;20050;-53
2021/11/03 04:00:41;;;;;;;3.17;2.70;;;21.40;48.20;;;;;;3128567;28;20642;-52
2021/11/03 04:02:12;;;;;;;3.00;2.70;;;21.40;48.30;;;;;;3144271;28;20152;-49
2021/11/03 04:03:43;;;;;;;3.00;2.70;;;21.40;48.30;;;;;;3136264;28;20044;-50
2021/11/03 04:05:15;;;;;;;3.28;2.70;;;21.30;48.30;;;;;;3136461;28;20051;-54
2021/11/03 04:06:47;;;;;;;3.50;2.45;;;21.40;48.40;;;;;;3125042;28;20103;-53
2021/11/03 04:08:20;;;;;;;3.47;2.70;;;21.40;48.40;;;;;;3129829;28;20095;-50
2021/11/03 04:09:51;;;;;;;3.60;2.88;;;21.40;48.30;;;;;;3133778;28;20053;-54
2021/11/03 04:11:23;;;;;;;3.40;2.58;;;21.30;48.30;;;;;;3133546;28;20052;-55
2021/11/03 04:12:56;;;;;;;3.78;2.83;;;21.40;48.40;;;;;;3133978;28;20049;-51
2021/11/03 04:14:28;;;;;;;2.72;2.40;;;21.30;48.30;;;;;;3127706;28;20045;-53
2021/11/03 04:16:00;;;;;;;3.10;2.55;;;21.30;48.40;;;;;;3130545;28;20092;-52
2021/11/03 04:17:31;;;;;;;2.65;2.45;;;21.30;48.40;;;;;;3140769;28;20132;-53
2021/11/03 04:19:03;;;;;;;2.60;2.40;;;21.40;48.30;;;;;;3141869;28;20071;-50
2021/11/03 04:20:35;;;;;;;3.05;2.30;;;21.30;48.90;;;;;;3137622;28;20053;-49
2021/11/03 04:22:07;;;;;;;3.25;2.80;;;21.30;48.40;;;;;;3142038;28;20110;-49
2021/11/03 04:23:39;;;;;;;4.60;2.53;;;21.30;48.40;;;;;;3142158;28;20053;-50
2021/11/03 04:25:11;;;;;;;3.30;2.50;;;21.30;48.40;;;;;;3142041;28;20056;-53
2021/11/03 04:26:45;;;;;;;3.45;2.45;;;21.30;48.40;;;;;;3141137;28;20114;-51
2021/11/03 04:28:18;;;;;;;2.83;2.53;;;21.30;48.40;;;;;;3136521;28;20056;-52
2021/11/03 04:29:50;;;;;;;3.70;2.60;;;21.30;48.30;;;;;;3141443;28;20045;-55
2021/11/03 04:31:22;;;;;;;3.42;2.70;;;21.40;48.40;;;;;;3130894;28;20040;-51
2021/11/03 04:32:54;;;;;;;2.72;2.30;;;21.30;48.50;;;;;;3137955;28;20045;-49
2021/11/03 04:34:26;;;;;;;3.17;2.50;;;21.30;48.40;;;;;;3135221;28;20048;-52
2021/11/03 04:35:57;;;;;;;3.80;2.60;;;21.30;48.50;;;;;;3133769;28;20504;-49
2021/11/03 04:37:29;;;;;;;2.85;2.50;;;21.30;48.50;;;;;;3136821;28;20052;-52
2021/11/03 04:39:02;;;;;;;3.75;2.53;;;21.30;48.50;;;;;;3146901;28;20052;-54
2021/11/03 04:40:33;;;;;;;2.67;2.30;;;21.30;48.40;;;;;;3145944;28;20477;-52
2021/11/03 04:42:05;;;;;;;4.78;2.88;;;21.30;48.40;;;;;;3134733;28;20071;-53
2021/11/03 04:43:38;;;;;;;4.07;2.20;;;21.30;48.50;;;;;;3124143;28;20052;-53
2021/11/03 04:45:10;;;;;;;2.85;2.10;;;21.30;48.60;;;;;;3127279;28;20053;-51
2021/11/03 04:46:42;;;;;;;3.10;2.40;;;21.30;48.50;;;;;;3141720;28;20049;-49
2021/11/03 04:48:14;;;;;;;4.22;2.40;;;21.40;48.50;;;;;;3139980;28;20295;-53
2021/11/03 04:49:46;;;;;;;2.92;2.47;;;21.40;48.50;;;;;;3137028;28;20166;-48
2021/11/03 04:51:17;;;;;;;3.65;2.63;;;21.40;48.50;;;;;;3137274;28;20092;-53
2021/11/03 04:52:49;;;;;;;3.83;2.55;;;21.50;48.40;;;;;;3121480;28;20053;-50
2021/11/03 04:54:21;;;;;;;2.83;2.25;;;21.50;48.30;;;;;;3121852;28;20061;-50
2021/11/03 04:55:54;;;;;;;3.30;2.20;;;21.60;48.10;;;;;;3129076;28;20063;-50
2021/11/03 04:57:26;;;;;;;2.67;2.40;;;21.70;48.00;;;;;;3134204;28;20695;-50
2021/11/03 04:58:59;;;;;;;2.72;2.28;;;21.70;47.80;;;;;;3123181;28;20580;-49
2021/11/03 05:00:33;;;;;;;2.70;2.33;;;21.80;47.70;;;;;;3123488;28;20504;-49
2021/11/03 05:02:05;;;;;;;2.63;2.42;;;21.80;47.70;;;;;;3127759;28;20533;-49
2021/11/03 05:03:37;;;;;;;3.13;2.40;;;21.80;47.40;;;;;;3121195;28;20068;-52
2021/11/03 05:05:08;;;;;;;3.78;2.30;;;21.90;47.50;;;;;;3125045;28;20059;-53
2021/11/03 05:06:44;;;;;;;4.03;2.33;;;21.90;47.50;;;;;;3133626;28;20045;-50
2021/11/03 05:08:16;;;;;;;3.00;2.17;;;21.90;47.50;;;;;;3124077;28;20049;-49
2021/11/03 05:09:48;;;;;;;2.67;2.38;;;22.00;47.30;;;;;;3120682;28;20056;-50
2021/11/03 05:11:20;;;;;;;2.30;2.00;;;22.00;47.30;;;;;;3127607;28;20099;-53
2021/11/03 05:12:52;;;;;;;2.50;2.30;;;22.00;47.10;;;;;;3143638;28;20057;-49
2021/11/03 05:14:25;;;;;;;3.58;2.10;;;22.10;47.00;;;;;;3134842;28;20138;-49
2021/11/03 05:15:57;;;;;;;3.08;2.30;;;22.20;46.80;;;;;;3130634;28;20065;-53
2021/11/03 05:17:29;;;;;;;3.47;2.53;;;22.20;46.80;;;;;;3121578;28;20049;-50
2021/11/03 05:19:00;;;;;;;3.42;2.10;;;22.30;46.70;;;;;;3121615;28;20061;-52
2021/11/03 05:20:32;;;;;;;3.25;2.33;;;22.30;46.50;;;;;;3120540;28;20064;-51
2021/11/03 05:22:06;;;;;;;2.95;2.42;;;22.40;46.50;;;;;;3120878;28;20041;-54
2021/11/03 05:23:37;;;;;;;3.40;2.30;;;22.40;46.40;;;;;;3131472;28;20053;-51
2021/11/03 05:25:09;;;;;;;2.90;2.30;;;22.50;46.30;;;;;;3126295;28;20049;-50
2021/11/03 05:26:41;;;;;;;3.35;2.10;;;22.50;46.20;;;;;;3123269;28;20395;-51
2021/11/03 05:28:12;;;;;;;2.90;2.17;;;22.60;46.10;;;;;;3134292;28;20044;-48
2021/11/03 05:29:46;;;;;;;2.40;2.20;;;22.60;46.10;;;;;;3134212;28;20083;-48
2021/11/03 05:31:17;;;;;;;2.53;2.15;;;22.50;46.00;;;;;;3132888;28;20049;-48
2021/11/03 05:32:49;;;;;;;2.42;2.00;;;22.60;46.00;;;;;;3134243;28;20053;-48
2021/11/03 05:34:21;;;;;;;2.40;2.05;;;22.50;46.00;;;;;;3134133;28;20485;-49
2021/11/03 05:35:52;;;;;;;2.67;2.17;;;22.60;46.00;;;;;;3133876;28;20482;-48
2021/11/03 05:37:24;;;;;;;2.90;2.00;;;22.60;45.90;;;;;;3134366;28;20575;-47
2021/11/03 05:38:56;;;;;;;3.90;2.13;;;22.70;45.90;;;;;;3134277;28;20789;-48
2021/11/03 05:40:29;;;;;;;2.22;2.03;;;22.70;45.90;;;;;;3134256;28;20080;-51
2021/11/03 05:42:00;;;;;;;2.67;2.05;;;22.70;45.90;;;;;;3133578;28;20045;-49
2021/11/03 05:43:32;;;;;;;2.45;2.03;;;22.70;45.90;;;;;;3134253;28;20057;-50
2021/11/03 05:45:06;;;;;;;2.38;1.90;;;22.70;45.90;;;;;;3133973;28;20048;-50
2021/11/03 05:46:40;;;;;;;2.15;1.95;;;22.70;45.90;;;;;;3133034;28;20049;-48
2021/11/03 05:48:13;;;;;;;2.40;2.20;;;22.60;45.90;;;;;;3134157;28;20049;-52
2021/11/03 05:49:45;;;;;;;3.05;2.22;;;22.60;46.00;;;;;;3133975;28;20493;-50
2021/11/03 05:51:16;;;;;;;3.10;2.22;;;22.60;46.00;;;;;;3133596;28;20060;-49
2021/11/03 05:52:49;;;;;;;2.30;2.10;;;22.60;46.00;;;;;;3133974;28;20052;-53
2021/11/03 05:54:25;;;;;;;2.80;2.22;;;22.60;46.10;;;;;;3133647;28;20049;-50
2021/11/03 05:55:57;;;;;;;2.10;1.90;;;22.60;46.20;;;;;;3133600;28;20053;-50
2021/11/03 05:57:30;;;;;;;2.05;1.73;;;22.50;46.20;;;;;;3133890;28;20516;-48
2021/11/03 05:59:02;;;;;;;2.10;1.77;;;22.40;46.20;;;;;;3133626;28;20056;-50
2021/11/03 06:00:36;;;;;;;2.95;2.17;;;22.40;46.30;;;;;;3129187;28;20041;-48
2021/11/03 06:02:08;;;;;;;4.95;2.00;;;22.40;46.40;;;;;;3120783;28;20041;-51
2021/11/03 06:03:39;;;;;;;3.15;2.08;;;22.40;46.50;;;;;;3121563;28;20053;-51
2021/11/03 06:05:11;;;;;;;4.82;2.30;;;22.40;46.60;;;;;;3121358;28;20064;-48
2021/11/03 06:06:43;;;;;;;9.82;2.40;;;22.40;46.90;;;;;;3129239;28;20049;-49
2021/11/03 06:08:15;;;;;;;7.95;2.20;;;22.40;47.40;;;;;;3133760;28;20049;-50
2021/11/03 06:09:47;;;;;;;9.88;2.10;;;22.50;47.80;;;;;;3133620;28;20052;-49
2021/11/03 06:11:22;;;;;;;9.93;2.20;;;22.50;47.80;;;;;;3133373;28;20072;-50
2021/11/03 06:12:54;;;;;;;7.40;2.20;;;22.50;48.20;;;;;;3133625;28;20140;-53
2021/11/03 06:14:25;;;;;;;7.38;2.25;;;22.60;48.10;;;;;;3133697;28;20056;-48
2021/11/03 06:15:58;;;;;;;9.00;2.28;;;22.50;48.10;;;;;;3124254;28;20042;-51
2021/11/03 06:17:35;;;;;;;8.65;2.05;;;22.50;48.30;;;;;;3145299;28;20082;-48
2021/11/03 06:19:07;;;;;;;19.13;2.40;;;22.60;48.10;;;;;;3132871;28;20499;-51
2021/11/03 06:20:38;;;;;;;5.45;2.00;;;22.60;48.20;;;;;;3133625;28;20615;-51
2021/11/03 06:22:10;;;;;;;8.80;2.25;;;22.60;48.20;;;;;;3133198;28;20567;-49
2021/11/03 06:23:42;;;;;;;5.10;2.25;;;22.70;48.60;;;;;;3133517;28;20053;-50
2021/11/03 06:25:18;;;;;;;7.72;1.92;;;22.70;48.70;;;;;;3133689;28;20053;-48
2021/11/03 06:26:49;;;;;;;6.60;2.25;;;22.70;48.70;;;;;;3133102;28;20053;-54
2021/11/03 06:28:21;;;;;;;7.60;2.25;;;22.80;48.60;;;;;;3133602;28;20091;-47
2021/11/03 06:29:53;;;;;;;7.53;1.80;;;22.80;48.70;;;;;;3133457;28;20492;-51
2021/11/03 06:31:26;;;;;;;12.82;2.20;;;22.80;48.80;;;;;;3137716;28;20102;-50
2021/11/03 06:32:58;;;;;;;8.77;2.28;;;22.90;48.90;;;;;;3139758;28;20091;-53
2021/11/03 06:34:29;;;;;;;9.85;2.20;;;22.90;49.00;;;;;;3133923;28;20813;-48
2021/11/03 06:36:02;;;;;;;9.20;2.38;;;22.90;49.00;;;;;;3145638;28;20801;-47
2021/11/03 06:37:34;;;;;;;7.32;2.05;;;22.90;48.90;;;;;;3137998;28;20045;-46
2021/11/03 06:39:06;;;;;;;10.88;2.28;;;22.80;48.70;;;;;;3153710;28;20052;-52
2021/11/03 06:40:38;;;;;;;5.75;2.13;;;22.80;48.60;;;;;;3140709;28;20098;-50
2021/11/03 06:42:09;;;;;;;4.40;2.40;;;22.70;48.50;;;;;;3137012;28;20045;-46
2021/11/03 06:43:41;;;;;;;10.48;2.30;;;22.70;48.60;;;;;;3137042;28;20045;-46
2021/11/03 06:45:14;;;;;;;9.10;2.40;;;22.60;48.70;;;;;;3133387;28;20040;-46
2021/11/03 06:46:47;;;;;;;11.75;2.45;;;22.60;49.30;;;;;;3123970;28;20045;-51
2021/11/03 06:48:19;;;;;;;12.60;2.95;;;22.60;49.80;;;;;;3141357;28;20632;-48
2021/11/03 06:49:51;;;;;;;12.45;2.72;;;22.70;50.10;;;;;;3140437;28;20478;-50
2021/11/03 06:51:22;;;;;;;12.07;3.30;;;22.70;50.20;;;;;;3132722;28;20493;-56
2021/11/03 06:52:56;;;;;;;20.05;3.50;;;22.70;50.70;;;;;;3133360;28;20110;-46
2021/11/03 06:54:29;;;;;;;20.05;3.47;;;22.70;51.40;;;;;;3132029;28;20049;-55
2021/11/03 06:56:01;;;;;;;18.85;3.70;;;22.70;51.60;;;;;;3134015;28;20589;-55
2021/11/03 06:57:32;;;;;;;18.73;3.83;;;22.70;53.10;;;;;;3149692;28;20040;-50
2021/11/03 06:59:04;;;;;;;26.73;3.80;;;22.70;53.60;;;;;;3142716;28;20048;-47
2021/11/03 07:00:38;;;;;;;18.02;4.07;;;22.80;53.90;;;;;;3144066;28;20044;-46
2021/11/03 07:02:11;;;;;;;26.85;4.18;;;22.80;53.90;;;;;;3139954;28;20100;-51
2021/11/03 07:03:45;;;;;;;16.67;4.03;;;22.90;54.10;;;;;;3134535;28;20045;-46
2021/11/03 07:05:17;;;;;;;19.42;4.20;;;22.80;54.50;;;;;;3134190;28;20087;-55
2021/11/03 07:06:49;;;;;;;17.60;3.92;;;22.80;54.60;;;;;;3132256;28;20053;-46
2021/11/03 07:08:21;;;;;;;19.08;3.33;;;22.80;54.50;;;;;;3133958;28;20040;-47
2021/11/03 07:09:53;;;;;;;17.13;3.80;;;22.90;55.00;;;;;;3136272;28;20492;-46
2021/11/03 07:11:25;;;;;;;18.90;3.63;;;22.90;54.80;;;;;;3129952;28;20295;-47
2021/11/03 07:12:56;;;;;;;17.90;3.97;;;22.90;55.00;;;;;;3132811;28;20053;-51
2021/11/03 07:14:28;;;;;;;25.60;3.65;;;22.80;54.90;;;;;;3129562;28;20045;-50
2021/11/03 07:16:00;;;;;;;16.98;3.60;;;22.80;54.90;;;;;;3119085;28;20094;-56
2021/11/03 07:17:33;;;;;;;16.35;4.15;;;22.70;54.40;;;;;;3124399;28;20128;-51
2021/11/03 07:19:05;;;;;;;21.77;4.13;;;22.60;53.50;;;;;;3132248;28;20048;-49
2021/11/03 07:20:37;;;;;;;13.57;4.45;;;22.50;52.60;;;;;;3131778;28;20130;-48
2021/11/03 07:22:09;;;;;;;23.58;4.95;;;22.50;51.50;;;;;;3132064;28;20052;-47
2021/11/03 07:23:40;;;;;;;20.70;4.10;;;22.50;51.50;;;;;;3124975;28;20048;-50
2021/11/03 07:25:13;;;;;;;23.80;5.07;;;22.50;51.80;;;;;;3125757;28;20784;-48
2021/11/03 07:26:44;;;;;;;33.58;6.55;;;22.60;52.20;;;;;;3132552;28;20429;-55
2021/11/03 07:28:16;;;;;;;30.38;7.03;;;22.60;52.40;;;;;;3149930;28;20052;-46
2021/11/03 07:29:49;;;;;;;30.73;6.10;;;22.60;52.50;;;;;;3131343;28;20489;-52
2021/11/03 07:31:21;;;;;;;30.63;6.57;;;22.60;52.50;;;;;;3126829;28;20103;-54
2021/11/03 07:32:54;;;;;;;37.42;6.15;;;22.60;52.40;;;;;;3125734;28;20045;-56
2021/11/03 07:34:26;;;;;;;32.22;6.40;;;22.70;52.70;;;;;;3120662;28;20148;-56
2021/11/03 07:35:58;;;;;;;32.73;5.73;;;22.70;53.10;;;;;;3126346;28;20049;-59
2021/11/03 07:37:29;;;;;;;26.30;5.78;;;22.80;53.30;;;;;;3119884;28;20292;-59
2021/11/03 07:39:01;;;;;;;26.05;5.57;;;22.80;52.90;;;;;;3130993;28;20048;-58
2021/11/03 07:40:37;;;;;;;27.15;5.35;;;22.80;53.10;;;;;;3133254;28;20053;-54
2021/11/03 07:42:09;;;;;;;20.17;5.50;;;22.70;53.50;;;;;;3144374;28;20528;-49
2021/11/03 07:43:43;;;;;;;22.08;5.13;;;22.70;54.00;;;;;;3145449;28;20052;-58
2021/11/03 07:45:15;;;;;;;24.38;5.03;;;22.80;54.40;;;;;;3142992;28;20090;-51
2021/11/03 07:46:47;;;;;;;20.10;4.75;;;22.90;54.00;;;;;;3130492;28;20500;-56
2021/11/03 07:48:20;;;;;;;16.83;4.88;;;22.90;53.60;;;;;;3145142;28;20053;-55
2021/11/03 07:49:51;;;;;;;21.50;4.90;;;22.80;53.50;;;;;;3145328;28;20666;-51
2021/11/03 07:51:23;;;;;;;22.48;5.25;;;22.70;53.50;;;;;;3144830;28;20472;-55
2021/11/03 07:52:55;;;;;;;21.58;5.05;;;22.70;53.60;;;;;;3145432;28;20048;-56
2021/11/03 07:54:27;;;;;;;19.50;4.80;;;22.80;53.60;;;;;;3145316;28;20059;-56
2021/11/03 07:56:00;;;;;;;21.58;5.00;;;22.80;53.80;;;;;;3142878;28;20799;-54
2021/11/03 07:57:32;;;;;;;18.83;5.18;;;22.90;53.60;;;;;;3132870;28;20052;-51
2021/11/03 07:59:04;;;;;;;24.55;4.70;;;22.90;53.40;;;;;;3132562;28;20053;-55
2021/11/03 08:00:36;;;;;;;21.80;5.00;;;22.90;53.50;;;;;;3132070;28;20037;-53